createdAt,value
2022-11-30T00:01:32.860Z,19.60
2022-11-30T00:04:01.518Z,18.80
2022-11-30T00:06:30.098Z,19.47
2022-11-30T00:08:59.590Z,20.17
2022-11-30T00:11:29.971Z,19.53
2022-11-30T00:13:58.640Z,19.43
2022-11-30T00:16:27.581Z,20.10
2022-11-30T00:18:56.282Z,20.80
2022-11-30T00:21:24.905Z,19.37
2022-11-30T00:23:53.539Z,20.93
2022-11-30T00:26:23.201Z,18.70
2022-11-30T00:28:53.253Z,20.00
2022-11-30T00:31:21.980Z,18.07
2022-11-30T00:33:50.630Z,19.10
2022-11-30T00:36:21.120Z,19.27
2022-11-30T00:38:50.860Z,17.53
2022-11-30T00:41:20.019Z,18.93
2022-11-30T00:43:49.073Z,18.07
2022-11-30T00:46:19.282Z,19.37
2022-11-30T00:48:47.959Z,18.77
2022-11-30T00:51:16.549Z,18.87
2022-11-30T00:53:47.448Z,18.00
2022-11-30T00:56:16.132Z,19.00
2022-11-30T00:58:45.023Z,18.03
2022-11-30T01:01:13.626Z,18.10
2022-11-30T01:03:43.774Z,18.27
2022-11-30T01:06:12.389Z,18.77
2022-11-30T01:08:40.974Z,19.13
2022-11-30T01:11:13.219Z,18.60
2022-11-30T01:13:41.831Z,17.57
2022-11-30T01:16:12.921Z,20.63
2022-11-30T01:18:43.075Z,19.30
2022-11-30T01:21:14.711Z,17.77
2022-11-30T01:23:43.725Z,20.27
2022-11-30T01:26:13.052Z,20.93
2022-11-30T01:28:43.935Z,19.27
2022-11-30T01:31:13.927Z,19.00
2022-11-30T01:33:44.094Z,21.40
2022-11-30T01:36:14.075Z,19.10
2022-11-30T01:38:45.013Z,20.70
2022-11-30T01:41:15.900Z,20.27
2022-11-30T01:43:45.847Z,19.30
2022-11-30T01:46:30.012Z,19.77
2022-11-30T01:49:04.660Z,20.10
2022-11-30T01:51:36.566Z,18.13
2022-11-30T01:54:07.442Z,17.10
2022-11-30T01:56:36.101Z,16.97
2022-11-30T01:59:04.686Z,16.43
2022-11-30T02:01:33.420Z,15.47
2022-11-30T02:04:07.673Z,17.73
2022-11-30T02:06:36.563Z,16.80
2022-11-30T02:09:05.257Z,15.80
2022-11-30T02:11:33.850Z,18.10
2022-11-30T02:14:15.931Z,17.30
2022-11-30T02:16:51.667Z,17.40
2022-11-30T02:19:56.196Z,16.63
2022-11-30T02:22:33.981Z,18.90
2022-11-30T02:25:09.710Z,18.20
2022-11-30T02:27:49.369Z,15.87
2022-11-30T02:30:20.868Z,16.90
2022-11-30T02:32:52.960Z,16.97
2022-11-30T02:35:24.366Z,16.90
2022-11-30T02:37:54.418Z,16.20
2022-11-30T02:40:23.266Z,16.20
2022-11-30T02:42:53.595Z,16.07
2022-11-30T02:45:30.759Z,15.20
2022-11-30T02:48:04.233Z,16.77
2022-11-30T02:50:38.227Z,17.47
2022-11-30T02:53:07.507Z,17.40
2022-11-30T02:55:36.306Z,17.07
2022-11-30T02:58:04.933Z,16.70
2022-11-30T03:00:34.874Z,17.97
2022-11-30T03:03:03.687Z,16.97
2022-11-30T03:05:32.869Z,16.57
2022-11-30T03:08:01.474Z,16.13
2022-11-30T03:10:30.165Z,15.97
2022-11-30T03:12:58.893Z,18.10
2022-11-30T03:15:27.954Z,16.33
2022-11-30T03:17:57.867Z,16.37
2022-11-30T03:20:26.740Z,16.70
2022-11-30T03:22:55.342Z,13.37
2022-11-30T03:25:23.943Z,15.40
2022-11-30T03:27:52.537Z,15.57
2022-11-30T03:30:21.312Z,17.03
2022-11-30T03:32:49.863Z,17.03
2022-11-30T03:35:19.840Z,16.90
2022-11-30T03:37:48.567Z,15.87
2022-11-30T03:40:17.243Z,17.17
2022-11-30T03:42:45.823Z,16.40
2022-11-30T03:45:14.365Z,15.30
2022-11-30T03:47:42.923Z,13.80
2022-11-30T03:50:12.092Z,15.50
2022-11-30T03:52:42.043Z,15.53
2022-11-30T03:55:11.035Z,15.87
2022-11-30T03:57:39.622Z,16.93
2022-11-30T04:00:09.467Z,16.53
2022-11-30T04:02:44.267Z,14.50
2022-11-30T04:05:13.537Z,16.20
2022-11-30T04:07:43.547Z,16.67
2022-11-30T04:10:12.997Z,15.63
2022-11-30T04:12:41.605Z,15.80
2022-11-30T04:15:11.150Z,14.67
2022-11-30T04:17:39.767Z,15.80
2022-11-30T04:20:09.168Z,15.17
2022-11-30T04:22:37.790Z,15.60
2022-11-30T04:25:08.784Z,15.43
2022-11-30T04:27:37.342Z,13.77
2022-11-30T04:30:07.371Z,14.90
2022-11-30T04:32:35.972Z,15.70
2022-11-30T04:35:04.936Z,14.90
2022-11-30T04:37:33.572Z,15.20
2022-11-30T04:40:02.207Z,13.47
2022-11-30T04:42:32.126Z,14.27
2022-11-30T04:45:00.762Z,14.00
2022-11-30T04:47:29.418Z,15.13
2022-11-30T04:49:58.050Z,14.33
2022-11-30T04:52:26.670Z,13.13
2022-11-30T04:54:56.860Z,13.90
2022-11-30T04:57:25.507Z,13.10
2022-11-30T04:59:55.431Z,13.80
2022-11-30T05:02:24.049Z,13.40
2022-11-30T05:04:52.686Z,13.07
2022-11-30T05:07:21.309Z,13.70
2022-11-30T05:09:49.944Z,12.90
2022-11-30T05:12:18.563Z,15.60
2022-11-30T05:14:47.466Z,15.30
2022-11-30T05:17:17.843Z,14.70
2022-11-30T05:19:46.435Z,15.23
2022-11-30T05:22:15.046Z,14.83
2022-11-30T05:24:43.664Z,14.23
2022-11-30T05:27:16.658Z,15.50
2022-11-30T05:29:48.064Z,14.63
2022-11-30T05:32:18.011Z,15.00
2022-11-30T05:34:51.401Z,14.63
2022-11-30T05:37:20.664Z,14.87
2022-11-30T05:39:49.269Z,15.30
2022-11-30T05:42:17.931Z,15.03
2022-11-30T05:44:47.811Z,14.43
2022-11-30T05:47:18.318Z,14.27
2022-11-30T05:49:46.955Z,14.33
2022-11-30T05:52:15.561Z,14.70
2022-11-30T05:54:44.160Z,16.00
2022-11-30T05:57:12.739Z,14.73
2022-11-30T05:59:41.511Z,14.83
2022-11-30T06:02:10.180Z,14.60
2022-11-30T06:04:40.204Z,15.23
2022-11-30T06:07:11.805Z,14.90
2022-11-30T06:09:40.440Z,14.77
2022-11-30T06:12:09.426Z,13.43
2022-11-30T06:14:38.019Z,15.23
2022-11-30T06:17:06.579Z,14.13
2022-11-30T06:19:35.215Z,14.87
2022-11-30T06:22:05.233Z,14.87
2022-11-30T06:24:33.865Z,14.77
2022-11-30T06:27:02.471Z,14.40
2022-11-30T06:29:31.076Z,15.93
2022-11-30T06:31:59.712Z,14.90
2022-11-30T06:34:28.359Z,14.13
2022-11-30T06:36:58.352Z,14.40
2022-11-30T06:39:57.867Z,14.20
2022-11-30T06:42:16.860Z,14.13
2022-11-30T06:44:45.988Z,15.27
2022-11-30T06:47:14.795Z,14.23
2022-11-30T06:49:43.439Z,14.83
2022-11-30T06:52:12.010Z,15.33
2022-11-30T06:54:41.990Z,15.50
2022-11-30T06:57:10.823Z,13.80
2022-11-30T06:59:42.291Z,13.30
2022-11-30T07:02:17.549Z,13.47
2022-11-30T07:04:47.491Z,12.80
2022-11-30T07:07:16.593Z,15.03
2022-11-30T07:09:46.631Z,14.43
2022-11-30T07:12:15.240Z,14.83
2022-11-30T07:14:43.882Z,15.47
2022-11-30T07:17:12.495Z,14.43
2022-11-30T07:19:41.146Z,13.07
2022-11-30T07:22:13.365Z,14.87
2022-11-30T07:25:00.108Z,14.53
2022-11-30T07:27:30.072Z,15.80
2022-11-30T07:29:58.723Z,15.23
2022-11-30T07:32:27.298Z,15.70
2022-11-30T07:34:55.903Z,15.17
2022-11-30T07:37:24.557Z,15.20
2022-11-30T07:39:53.173Z,15.63
2022-11-30T07:42:22.843Z,15.10
2022-11-30T07:44:58.416Z,14.90
2022-11-30T07:47:27.675Z,15.67
2022-11-30T07:49:56.308Z,15.10
2022-11-30T07:52:24.922Z,15.40
2022-11-30T07:54:53.599Z,15.00
2022-11-30T07:57:22.194Z,14.60
2022-11-30T07:59:52.181Z,15.30
2022-11-30T08:02:20.909Z,15.30
2022-11-30T08:04:50.995Z,15.00
2022-11-30T08:07:19.878Z,15.53
2022-11-30T08:09:49.094Z,17.03
2022-11-30T08:12:17.711Z,17.30
2022-11-30T08:15:18.193Z,17.50
2022-11-30T08:17:36.219Z,16.80
2022-11-30T08:20:05.885Z,15.10
2022-11-30T08:22:34.906Z,17.50
2022-11-30T08:25:03.570Z,17.40
2022-11-30T08:27:32.259Z,16.47
2022-11-30T08:30:00.815Z,17.40
2022-11-30T08:32:29.391Z,17.73
2022-11-30T08:34:59.353Z,17.00
2022-11-30T08:37:27.991Z,17.30
2022-11-30T08:39:56.639Z,17.60
2022-11-30T08:42:25.326Z,18.93
2022-11-30T08:44:53.930Z,17.30
2022-11-30T08:47:22.550Z,17.53
2022-11-30T08:49:51.198Z,17.27
2022-11-30T08:52:21.154Z,23.50
2022-11-30T08:54:50.511Z,18.07
2022-11-30T08:57:20.976Z,18.10
2022-11-30T08:59:49.833Z,17.90
2022-11-30T09:02:20.067Z,18.20
2022-11-30T09:04:51.139Z,17.13
2022-11-30T09:07:21.332Z,18.10
2022-11-30T09:09:50.041Z,16.57
2022-11-30T09:12:18.619Z,16.80
2022-11-30T09:14:54.018Z,17.00
2022-11-30T09:17:26.373Z,17.03
2022-11-30T09:19:55.984Z,15.77
2022-11-30T09:22:26.525Z,16.90
2022-11-30T09:24:55.303Z,15.13
2022-11-30T09:27:24.796Z,15.23
2022-11-30T09:29:53.461Z,15.67
2022-11-30T09:32:22.106Z,14.63
2022-11-30T09:34:51.094Z,14.67
2022-11-30T09:37:19.983Z,15.27
2022-11-30T09:39:50.008Z,13.57
2022-11-30T09:42:38.914Z,15.20
2022-11-30T09:45:10.472Z,14.67
2022-11-30T09:48:04.185Z,14.93
2022-11-30T09:50:35.386Z,14.00
2022-11-30T09:53:07.007Z,14.20
2022-11-30T09:55:40.227Z,15.33
2022-11-30T09:58:15.530Z,13.90
2022-11-30T10:00:44.847Z,12.87
2022-11-30T10:03:14.416Z,13.77
2022-11-30T10:05:48.033Z,13.93
2022-11-30T10:08:27.224Z,13.20
2022-11-30T10:11:11.436Z,12.73
2022-11-30T10:13:52.610Z,12.83
2022-11-30T10:16:29.262Z,13.63
2022-11-30T10:19:02.291Z,11.40
2022-11-30T10:21:43.896Z,13.53
2022-11-30T10:24:22.329Z,12.80
2022-11-30T10:26:55.077Z,12.40
2022-11-30T10:29:28.456Z,12.87
2022-11-30T10:31:59.838Z,12.17
2022-11-30T10:34:33.570Z,13.17
2022-11-30T10:37:05.412Z,12.03
2022-11-30T10:39:36.585Z,10.63
2022-11-30T10:42:11.673Z,10.50
2022-11-30T10:44:42.079Z,12.03
2022-11-30T10:47:14.542Z,11.37
2022-11-30T10:49:47.122Z,10.83
2022-11-30T10:52:18.165Z,11.93
2022-11-30T10:54:47.072Z,11.30
2022-11-30T10:57:17.388Z,11.17
2022-11-30T10:59:49.061Z,10.13
2022-11-30T11:02:39.660Z,8.87
2022-11-30T11:05:23.364Z,9.90
2022-11-30T11:07:59.814Z,9.17
2022-11-30T11:10:36.386Z,8.03
2022-11-30T11:13:06.559Z,8.10
2022-11-30T11:15:36.345Z,8.13
2022-11-30T11:18:29.556Z,8.80
2022-11-30T11:21:06.291Z,7.77
2022-11-30T11:23:37.946Z,8.23
2022-11-30T11:26:07.332Z,7.83
2022-11-30T11:28:37.974Z,7.10
2022-11-30T11:31:18.789Z,6.90
2022-11-30T11:33:52.481Z,8.30
2022-11-30T11:36:26.991Z,7.10
2022-11-30T11:38:55.735Z,6.53
2022-11-30T11:41:27.893Z,7.60
2022-11-30T11:44:03.836Z,7.40
2022-11-30T11:46:33.336Z,7.13
2022-11-30T11:49:03.806Z,6.33
2022-11-30T11:51:35.193Z,7.00
2022-11-30T11:54:11.720Z,7.50
2022-11-30T11:56:40.322Z,6.70
2022-11-30T11:59:16.790Z,7.43
2022-11-30T12:01:53.701Z,7.23
2022-11-30T12:04:46.645Z,7.87
2022-11-30T12:07:23.679Z,13.20
2022-11-30T12:10:16.680Z,8.03
2022-11-30T12:12:55.400Z,7.87
2022-11-30T12:15:32.528Z,7.70
2022-11-30T12:18:09.004Z,7.93
2022-11-30T12:20:51.030Z,7.47
2022-11-30T12:23:31.657Z,7.57
2022-11-30T12:26:08.599Z,7.13
2022-11-30T12:28:41.937Z,7.90
2022-11-30T12:31:17.117Z,8.90
2022-11-30T12:33:57.725Z,8.40
2022-11-30T12:36:34.107Z,8.77
2022-11-30T12:39:09.460Z,8.60
2022-11-30T12:41:42.860Z,9.07
2022-11-30T12:44:36.945Z,9.37
2022-11-30T12:47:25.643Z,9.47
2022-11-30T12:50:08.357Z,11.27
2022-11-30T12:52:43.982Z,11.03
2022-11-30T12:55:21.899Z,11.47
2022-11-30T12:57:55.015Z,10.30
2022-11-30T13:00:26.613Z,10.97
2022-11-30T13:03:14.365Z,10.40
2022-11-30T13:05:45.412Z,11.30
2022-11-30T13:08:21.089Z,9.77
2022-11-30T13:10:52.900Z,10.03
2022-11-30T13:13:25.591Z,9.23
2022-11-30T13:15:54.722Z,10.20
2022-11-30T13:18:25.193Z,10.10
2022-11-30T13:20:57.950Z,11.63
2022-11-30T13:23:35.857Z,10.87
2022-11-30T13:26:22.519Z,10.60
2022-11-30T13:29:02.097Z,10.10
2022-11-30T13:31:33.975Z,10.17
2022-11-30T13:34:04.019Z,10.47
2022-11-30T13:36:35.953Z,9.83
2022-11-30T13:39:23.261Z,9.50
2022-11-30T13:42:10.521Z,9.90
2022-11-30T13:44:40.047Z,10.80
2022-11-30T13:47:18.114Z,10.30
2022-11-30T13:49:48.307Z,10.47
2022-11-30T13:52:24.637Z,10.50
2022-11-30T13:54:55.603Z,9.90
2022-11-30T13:58:01.923Z,9.77
2022-11-30T14:00:49.339Z,10.60
2022-11-30T14:03:26.326Z,10.30
2022-11-30T14:05:57.309Z,11.00
2022-11-30T14:08:40.835Z,10.10
2022-11-30T14:11:41.149Z,10.90
2022-11-30T14:14:45.118Z,9.37
2022-11-30T14:17:17.763Z,10.40
2022-11-30T14:19:47.504Z,9.80
2022-11-30T14:22:17.843Z,10.23
2022-11-30T14:24:47.767Z,9.50
2022-11-30T14:27:19.445Z,9.23
2022-11-30T14:29:53.180Z,9.93
2022-11-30T14:32:35.096Z,11.23
2022-11-30T14:35:09.003Z,10.90
2022-11-30T14:37:44.495Z,10.47
2022-11-30T14:40:18.984Z,10.30
2022-11-30T14:42:50.372Z,9.30
2022-11-30T14:45:24.773Z,9.67
2022-11-30T14:47:54.752Z,8.80
2022-11-30T14:50:26.356Z,8.80
2022-11-30T14:53:04.455Z,8.43
2022-11-30T14:55:37.474Z,9.17
2022-11-30T14:58:15.012Z,8.90
2022-11-30T15:00:44.805Z,9.60
2022-11-30T15:03:22.896Z,8.27
2022-11-30T15:05:52.890Z,7.70
2022-11-30T15:08:23.313Z,7.60
2022-11-30T15:10:52.358Z,7.63
2022-11-30T15:13:21.421Z,8.33
2022-11-30T15:15:55.161Z,7.37
2022-11-30T15:18:24.624Z,8.10
2022-11-30T15:20:57.271Z,9.57
2022-11-30T15:23:28.159Z,9.47
2022-11-30T15:25:58.890Z,8.90
2022-11-30T15:28:31.753Z,9.47
2022-11-30T15:31:02.279Z,10.63
2022-11-30T15:33:33.205Z,10.37
2022-11-30T15:36:32.293Z,10.63
2022-11-30T15:38:54.136Z,13.67
2022-11-30T15:41:24.423Z,13.50
2022-11-30T15:43:55.507Z,11.20
2022-11-30T15:46:32.670Z,10.37
2022-11-30T15:49:14.084Z,9.73
2022-11-30T15:51:44.376Z,8.70
2022-11-30T15:54:15.376Z,9.80
2022-11-30T15:56:56.410Z,9.33
2022-11-30T15:59:26.310Z,9.40
2022-11-30T16:02:02.022Z,7.57
2022-11-30T16:05:20.774Z,8.17
2022-11-30T16:07:51.417Z,8.90
2022-11-30T16:10:23.501Z,10.47
2022-11-30T16:12:53.221Z,9.80
2022-11-30T16:15:24.319Z,8.23
2022-11-30T16:17:54.360Z,7.93
2022-11-30T16:20:24.019Z,7.23
2022-11-30T16:22:52.697Z,8.07
2022-11-30T16:25:25.805Z,8.10
2022-11-30T16:27:54.458Z,7.80
2022-11-30T16:30:24.211Z,7.10
2022-11-30T16:32:52.892Z,6.90
2022-11-30T16:35:23.935Z,7.10
2022-11-30T16:37:52.907Z,8.30
2022-11-30T16:40:22.868Z,8.13
2022-11-30T16:42:52.184Z,7.40
2022-11-30T16:45:22.862Z,9.60
2022-11-30T16:47:52.291Z,10.27
2022-11-30T16:50:21.152Z,9.90
2022-11-30T16:52:49.813Z,9.90
2022-11-30T16:55:19.895Z,9.07
2022-11-30T16:57:50.549Z,8.87
2022-11-30T17:00:20.649Z,9.17
2022-11-30T17:02:54.123Z,9.80
2022-11-30T17:05:22.759Z,8.50
2022-11-30T17:07:51.550Z,9.37
2022-11-30T17:10:20.369Z,10.57
2022-11-30T17:12:50.983Z,11.33
2022-11-30T17:15:23.286Z,12.27
2022-11-30T17:17:51.975Z,10.07
2022-11-30T17:20:20.610Z,9.37
2022-11-30T17:22:49.211Z,9.80
2022-11-30T17:25:20.337Z,10.47
2022-11-30T17:27:51.030Z,10.03
2022-11-30T17:30:22.019Z,8.90
2022-11-30T17:32:51.527Z,8.83
2022-11-30T17:35:20.308Z,8.07
2022-11-30T17:37:48.980Z,8.00
2022-11-30T17:40:17.674Z,7.87
2022-11-30T17:42:46.293Z,7.90
2022-11-30T17:45:16.378Z,6.80
2022-11-30T17:47:45.019Z,6.70
2022-11-30T17:50:14.609Z,27.70
2022-11-30T17:52:43.266Z,6.90
2022-11-30T17:55:11.890Z,7.73
2022-11-30T17:57:40.524Z,6.30
2022-11-30T18:00:10.005Z,6.20
2022-11-30T18:02:40.050Z,5.93
2022-11-30T18:05:09.511Z,6.93
2022-11-30T18:07:38.172Z,5.83
2022-11-30T18:10:08.111Z,6.30
2022-11-30T18:12:36.937Z,5.70
2022-11-30T18:15:06.332Z,5.90
2022-11-30T18:17:35.383Z,5.40
2022-11-30T18:20:06.530Z,6.93
2022-11-30T18:22:35.251Z,6.60
2022-11-30T18:25:03.916Z,5.10
2022-11-30T18:27:32.518Z,5.57
2022-11-30T18:30:03.723Z,5.70
2022-11-30T18:32:34.781Z,6.13
2022-11-30T18:35:04.864Z,6.70
2022-11-30T18:37:33.789Z,5.87
2022-11-30T18:40:02.491Z,5.63
2022-11-30T18:42:31.467Z,6.77
2022-11-30T18:45:00.071Z,6.67
2022-11-30T18:47:28.728Z,11.60
2022-11-30T18:49:57.340Z,5.97
2022-11-30T18:52:28.193Z,6.70
2022-11-30T18:54:56.813Z,6.50
2022-11-30T18:57:25.567Z,7.07
2022-11-30T18:59:54.225Z,6.70
2022-11-30T19:02:22.995Z,6.20
2022-11-30T19:04:51.668Z,7.00
2022-11-30T19:07:20.380Z,6.23
2022-11-30T19:09:50.413Z,7.30
2022-11-30T19:12:19.075Z,6.70
2022-11-30T19:14:49.247Z,6.50
2022-11-30T19:17:18.284Z,6.80
2022-11-30T19:19:47.219Z,5.80
2022-11-30T19:22:15.822Z,5.67
2022-11-30T19:24:44.457Z,6.07
2022-11-30T19:27:14.412Z,5.73
2022-11-30T19:29:43.046Z,6.70
2022-11-30T19:32:11.664Z,5.87
2022-11-30T19:34:40.315Z,8.53
2022-11-30T19:37:09.006Z,6.40
2022-11-30T19:39:37.638Z,6.63
2022-11-30T19:42:07.122Z,5.93
2022-11-30T19:44:37.203Z,7.87
2022-11-30T19:47:05.971Z,7.20
2022-11-30T19:49:34.607Z,6.50
2022-11-30T19:52:03.299Z,6.90
2022-11-30T19:54:31.886Z,6.20
2022-11-30T19:57:00.525Z,7.10
2022-11-30T19:59:29.161Z,6.77
2022-11-30T20:01:59.256Z,7.87
2022-11-30T20:04:27.924Z,6.97
2022-11-30T20:06:56.636Z,6.67
2022-11-30T20:09:25.294Z,7.60
2022-11-30T20:11:54.371Z,6.97
2022-11-30T20:14:23.361Z,7.10
2022-11-30T20:16:52.809Z,7.03
2022-11-30T20:19:22.916Z,7.30
2022-11-30T20:21:51.733Z,6.63
2022-11-30T20:24:20.382Z,6.60
2022-11-30T20:26:49.028Z,7.20
2022-11-30T20:29:18.707Z,7.40
2022-11-30T20:31:50.581Z,7.10
2022-11-30T20:34:19.205Z,6.93
2022-11-30T20:36:49.394Z,6.90
2022-11-30T20:39:18.164Z,6.97
2022-11-30T20:41:46.839Z,7.10
2022-11-30T20:44:15.968Z,7.33
2022-11-30T20:46:44.781Z,6.87
2022-11-30T20:49:17.355Z,7.27
2022-11-30T20:51:46.827Z,6.90
2022-11-30T20:54:17.264Z,7.50
2022-11-30T20:56:50.093Z,6.60
2022-11-30T20:59:23.429Z,7.30
2022-11-30T21:01:52.176Z,6.90
2022-11-30T21:04:20.898Z,6.57
2022-11-30T21:06:49.535Z,7.20
2022-11-30T21:09:20.308Z,7.27
2022-11-30T21:11:49.731Z,7.10
2022-11-30T21:14:18.714Z,7.70
2022-11-30T21:16:47.372Z,7.43
2022-11-30T21:19:16.147Z,8.23
2022-11-30T21:21:45.320Z,7.10
2022-11-30T21:24:14.107Z,7.60
2022-11-30T21:26:44.456Z,7.50
2022-11-30T21:29:14.694Z,7.00
2022-11-30T21:31:43.793Z,7.30
2022-11-30T21:34:12.621Z,7.07
2022-11-30T21:36:41.458Z,7.40
2022-11-30T21:39:10.714Z,8.40
2022-11-30T21:41:40.822Z,7.60
2022-11-30T21:44:12.395Z,7.70
2022-11-30T21:46:41.018Z,8.07
2022-11-30T21:49:10.539Z,7.73
2022-11-30T21:51:39.539Z,8.27
2022-11-30T21:54:11.343Z,8.57
2022-11-30T21:56:41.185Z,8.80
2022-11-30T21:59:14.151Z,9.13
2022-11-30T22:01:44.297Z,8.40
2022-11-30T22:04:14.583Z,7.60
2022-11-30T22:06:43.726Z,7.57
2022-11-30T22:09:14.208Z,9.13
2022-11-30T22:11:45.001Z,8.07
2022-11-30T22:14:16.878Z,9.03
2022-11-30T22:16:45.698Z,9.37
2022-11-30T22:19:14.777Z,10.13
2022-11-30T22:21:49.439Z,9.40
2022-11-30T22:24:19.110Z,8.77
2022-11-30T22:26:48.917Z,8.80
2022-11-30T22:29:20.703Z,9.53
2022-11-30T22:31:50.469Z,8.03
2022-11-30T22:34:19.384Z,9.83
2022-11-30T22:36:48.434Z,9.17
2022-11-30T22:39:18.808Z,8.50
2022-11-30T22:41:54.777Z,8.97
2022-11-30T22:44:26.730Z,8.90
2022-11-30T22:46:55.540Z,9.23
2022-11-30T22:49:24.530Z,9.00
2022-11-30T22:51:53.302Z,9.27
2022-11-30T22:54:22.030Z,8.80
2022-11-30T22:56:50.705Z,10.23
2022-11-30T22:59:19.362Z,9.83
2022-11-30T23:01:50.260Z,9.40
2022-11-30T23:04:20.730Z,8.87
2022-11-30T23:06:50.231Z,10.37
2022-11-30T23:09:20.510Z,9.90
2022-11-30T23:11:49.858Z,12.53
2022-11-30T23:14:18.884Z,9.80
2022-11-30T23:16:49.179Z,9.77
2022-11-30T23:19:18.135Z,9.70
2022-11-30T23:21:46.868Z,8.93
2022-11-30T23:24:17.407Z,9.87
2022-11-30T23:26:46.145Z,9.57
2022-11-30T23:29:15.900Z,10.33
2022-11-30T23:31:46.009Z,10.73
2022-11-30T23:34:17.468Z,9.83
2022-11-30T23:36:46.132Z,10.10
2022-11-30T23:39:16.385Z,10.90
2022-11-30T23:41:44.940Z,11.40
2022-11-30T23:44:13.804Z,10.90
2022-11-30T23:46:42.518Z,11.33
2022-11-30T23:49:13.319Z,10.60
2022-11-30T23:51:43.824Z,11.07
2022-11-30T23:54:12.660Z,10.80
2022-11-30T23:56:41.315Z,10.40
2022-11-30T23:59:09.938Z,10.83
